createdAt,value
2019-04-11T00:02:44.801Z,12.60
2019-04-11T00:06:49.942Z,12.50
2019-04-11T00:10:55.575Z,12.40
2019-04-11T00:15:00.632Z,12.50
2019-04-11T00:19:05.610Z,12.40
2019-04-11T00:23:10.635Z,12.50
2019-04-11T00:27:15.463Z,12.50
2019-04-11T00:31:20.985Z,12.40
2019-04-11T00:35:27.942Z,12.40
2019-04-11T00:39:33.278Z,12.40
2019-04-11T00:43:41.966Z,12.40
2019-04-11T00:47:45.011Z,12.40
2019-04-11T00:51:50.346Z,12.40
2019-04-11T00:55:55.716Z,12.40
2019-04-11T01:00:00.717Z,12.40
2019-04-11T01:04:05.947Z,12.40
2019-04-11T01:08:11.479Z,12.30
2019-04-11T01:12:17.087Z,12.30
2019-04-11T01:16:34.896Z,12.20
2019-04-11T01:20:39.856Z,12.20
2019-04-11T01:24:45.865Z,12.10
2019-04-11T01:28:52.433Z,12.00
2019-04-11T01:32:58.939Z,12.00
2019-04-11T01:37:03.953Z,11.90
2019-04-11T01:41:10.035Z,11.90
2019-04-11T01:45:17.319Z,11.80
2019-04-11T01:49:24.043Z,11.80
2019-04-11T01:53:29.039Z,11.70
2019-04-11T01:57:33.992Z,11.70
2019-04-11T02:01:58.348Z,11.50
2019-04-11T02:06:03.611Z,11.60
2019-04-11T02:10:08.632Z,11.50
2019-04-11T02:14:16.503Z,11.50
2019-04-11T02:18:21.426Z,11.50
2019-04-11T02:22:34.721Z,11.40
2019-04-11T02:26:41.070Z,11.00
2019-04-11T02:30:51.241Z,10.90
2019-04-11T02:34:58.948Z,10.80
2019-04-11T02:39:09.826Z,11.00
2019-04-11T02:43:13.205Z,10.90
2019-04-11T02:47:22.821Z,10.90
2019-04-11T02:51:26.834Z,10.90
2019-04-11T02:55:33.530Z,11.00
2019-04-11T02:59:40.948Z,10.90
2019-04-11T03:03:47.511Z,10.80
2019-04-11T03:07:54.107Z,10.70
2019-04-11T03:11:59.922Z,10.60
2019-04-11T03:16:23.641Z,10.70
2019-04-11T03:20:23.017Z,10.50
2019-04-11T03:24:18.576Z,10.60
2019-04-11T03:28:27.520Z,10.50
2019-04-11T03:33:17.226Z,10.50
2019-04-11T03:37:13.879Z,10.30
2019-04-11T03:41:05.852Z,10.30
2019-04-11T03:45:15.282Z,10.30
2019-04-11T03:49:06.177Z,10.30
2019-04-11T03:53:07.071Z,10.20
2019-04-11T03:57:13.363Z,10.20
2019-04-11T04:01:26.866Z,10.10
2019-04-11T04:05:36.175Z,10.10
2019-04-11T04:09:39.752Z,10.00
2019-04-11T04:13:53.993Z,9.80
2019-04-11T04:18:19.315Z,9.70
2019-04-11T04:22:31.564Z,9.80
2019-04-11T04:26:37.010Z,9.70
2019-04-11T04:30:43.263Z,9.60
2019-04-11T04:34:50.640Z,9.70
2019-04-11T04:38:57.317Z,9.70
2019-04-11T04:43:07.106Z,9.70
2019-04-11T04:47:21.188Z,9.70
2019-04-11T04:51:19.659Z,9.60
2019-04-11T11:15:01.496Z,14.30
2019-04-11T11:19:48.737Z,14.60
2019-04-11T11:23:42.995Z,14.60
2019-04-11T11:27:48.409Z,14.40
2019-04-11T11:32:03.075Z,14.40
2019-04-11T11:36:45.726Z,14.50
2019-04-11T11:41:17.089Z,13.90
2019-04-11T11:45:33.386Z,14.30
2019-04-11T11:49:48.748Z,14.70
2019-04-11T11:54:11.374Z,15.00
2019-04-11T11:58:31.132Z,15.30
2019-04-11T12:02:44.407Z,15.50
2019-04-11T12:06:56.279Z,15.70
2019-04-11T12:11:01.783Z,15.90
2019-04-11T12:15:28.373Z,16.20
2019-04-11T12:19:47.815Z,16.20
2019-04-11T12:24:07.025Z,16.10
2019-04-11T12:28:39.030Z,16.10
2019-04-11T12:33:03.447Z,15.90
2019-04-11T12:37:14.869Z,15.80
2019-04-11T12:41:25.068Z,15.70
2019-04-11T12:45:52.036Z,15.60
2019-04-11T12:50:27.705Z,15.40
2019-04-11T12:54:32.744Z,15.10
2019-04-11T12:58:42.597Z,14.90
2019-04-11T13:03:05.628Z,14.70
2019-04-11T13:07:26.564Z,14.60
2019-04-11T13:11:31.503Z,14.60
2019-04-11T13:15:48.481Z,14.90
2019-04-11T13:20:15.084Z,14.70
2019-04-11T13:24:44.733Z,14.80
2019-04-11T13:28:55.064Z,15.00
2019-04-11T13:33:02.389Z,15.00
2019-04-11T13:37:24.924Z,15.10
2019-04-11T13:41:48.964Z,15.20
2019-04-11T13:46:02.235Z,15.20
2019-04-11T13:50:16.363Z,15.10
2019-04-11T13:54:35.713Z,15.10
2019-04-11T13:58:58.247Z,15.10
2019-04-11T14:03:21.192Z,15.20
2019-04-11T14:07:26.174Z,15.10
2019-04-11T14:11:31.578Z,15.00
2019-04-11T14:15:40.639Z,15.00
2019-04-11T14:20:03.613Z,15.10
2019-04-11T14:24:41.526Z,15.10
2019-04-11T14:28:52.628Z,15.00
2019-04-11T14:32:58.037Z,14.90
2019-04-11T14:37:12.964Z,14.70
2019-04-11T14:41:41.549Z,14.60
2019-04-11T14:46:18.504Z,14.50
2019-04-11T14:50:24.415Z,14.50
2019-04-11T14:54:51.802Z,14.50
2019-04-11T14:59:14.571Z,14.50
2019-04-11T15:03:50.748Z,14.60
2019-04-11T15:07:56.257Z,14.60
2019-04-11T15:12:04.166Z,14.60
2019-04-11T15:16:26.647Z,14.50
2019-04-11T15:20:56.421Z,14.50
2019-04-11T15:25:08.695Z,14.50
2019-04-11T15:29:17.854Z,14.40
2019-04-11T15:33:40.284Z,14.40
2019-04-11T15:38:04.256Z,14.40
2019-04-11T15:42:11.735Z,14.40
2019-04-11T15:46:30.343Z,14.20
2019-04-11T15:50:53.196Z,14.40
2019-04-11T15:55:31.842Z,14.30
2019-04-11T15:59:55.960Z,14.20
2019-04-11T16:04:10.696Z,14.10
2019-04-11T16:08:47.502Z,14.20
2019-04-11T16:12:59.080Z,14.30
2019-04-11T16:17:35.563Z,14.20
2019-04-11T16:22:01.600Z,13.90
2019-04-11T16:26:08.596Z,13.80
2019-04-11T16:30:14.777Z,13.80
2019-04-11T16:34:48.184Z,13.70
2019-04-11T16:39:19.589Z,13.80
2019-04-11T16:43:24.544Z,13.60
2019-04-11T16:48:01.817Z,13.70
2019-04-11T16:52:08.254Z,13.70
2019-04-11T16:56:13.777Z,13.60
2019-04-11T17:00:20.605Z,13.60
2019-04-11T17:04:26.700Z,13.70
2019-04-11T17:08:39.449Z,13.60
2019-04-11T17:12:44.258Z,13.50
2019-04-11T17:16:49.413Z,13.50
2019-04-11T17:20:54.611Z,13.50
2019-04-11T17:24:59.562Z,13.50
2019-04-11T17:29:04.425Z,13.40
2019-04-11T17:33:09.397Z,13.30
2019-04-11T17:37:14.625Z,13.40
2019-04-11T17:41:19.569Z,13.20
2019-04-11T17:45:24.363Z,13.10
2019-04-11T17:49:29.195Z,13.00
2019-04-11T17:53:34.145Z,13.00
2019-04-11T17:57:38.887Z,13.00
2019-04-11T18:01:43.790Z,13.00
2019-04-11T18:05:49.004Z,13.10
2019-04-11T18:09:56.038Z,13.00
2019-04-11T18:14:01.478Z,12.90
2019-04-11T18:18:06.536Z,12.90
2019-04-11T18:22:13.637Z,12.90
2019-04-11T18:26:21.382Z,12.80
2019-04-11T18:30:26.067Z,12.80
2019-04-11T18:34:31.733Z,12.80
2019-04-11T18:38:38.264Z,12.70
2019-04-11T18:42:43.252Z,12.60
2019-04-11T18:46:48.903Z,12.50
2019-04-11T18:50:53.837Z,12.50
2019-04-11T18:55:00.576Z,12.40
2019-04-11T18:59:05.602Z,12.40
2019-04-11T19:03:10.874Z,12.20
2019-04-11T19:07:27.141Z,12.20
2019-04-11T19:11:22.860Z,12.20
2019-04-11T19:15:28.021Z,12.20
2019-04-11T19:19:33.106Z,12.10
2019-04-11T19:23:39.778Z,12.00
2019-04-11T19:27:44.859Z,11.90
2019-04-11T19:31:49.680Z,12.00
2019-04-11T19:35:54.860Z,12.00
2019-04-11T19:40:01.069Z,11.80
2019-04-11T19:44:06.252Z,11.80
2019-04-11T19:48:11.177Z,11.70
2019-04-11T19:52:16.003Z,11.70
2019-04-11T19:56:38.168Z,11.50
2019-04-11T20:00:43.076Z,11.60
2019-04-11T20:04:47.949Z,11.60
2019-04-11T20:08:52.734Z,11.60
2019-04-11T20:12:59.098Z,11.60
2019-04-11T20:17:04.460Z,11.60
2019-04-11T20:21:09.250Z,11.50
2019-04-11T20:25:16.280Z,11.40
2019-04-11T20:29:21.567Z,11.40
2019-04-11T20:33:27.791Z,11.40
2019-04-11T20:37:39.073Z,11.30
2019-04-11T20:41:39.455Z,11.40
2019-04-11T20:45:44.846Z,11.30
2019-04-11T20:49:50.863Z,11.30
2019-04-11T20:53:55.885Z,11.30
2019-04-11T20:58:00.638Z,11.30
2019-04-11T21:02:05.565Z,11.30
2019-04-11T21:06:10.997Z,11.20
2019-04-11T21:10:15.834Z,11.30
2019-04-11T21:14:20.652Z,11.20
2019-04-11T21:18:25.827Z,11.20
2019-04-11T21:22:31.368Z,11.10
2019-04-11T21:26:36.428Z,11.10
2019-04-11T21:30:41.247Z,11.00
2019-04-11T21:34:46.063Z,11.00
2019-04-11T21:38:51.033Z,11.00
2019-04-11T21:42:55.922Z,11.10
2019-04-11T21:47:01.080Z,11.00
2019-04-11T21:51:11.069Z,11.00
2019-04-11T21:55:16.071Z,11.10
2019-04-11T21:59:21.184Z,10.90
2019-04-11T22:03:26.868Z,10.80
2019-04-11T22:07:31.766Z,10.60
2019-04-11T22:11:38.404Z,10.60
2019-04-11T22:15:44.476Z,10.60
2019-04-11T22:19:49.204Z,10.50
2019-04-11T22:23:54.097Z,10.60
2019-04-11T22:27:59.365Z,10.60
2019-04-11T22:32:04.349Z,10.50
2019-04-11T22:36:09.295Z,10.60
2019-04-11T22:40:14.172Z,10.60
2019-04-11T22:44:30.679Z,10.50
2019-04-11T22:48:36.782Z,10.40
2019-04-11T22:52:42.316Z,10.50
2019-04-11T22:56:48.160Z,10.40
2019-04-11T23:00:52.988Z,10.60
2019-04-11T23:04:57.846Z,10.50
2019-04-11T23:09:03.247Z,10.40
2019-04-11T23:13:08.920Z,10.40
2019-04-11T23:17:14.208Z,10.40
2019-04-11T23:21:19.552Z,10.40
2019-04-11T23:25:24.504Z,10.30
2019-04-11T23:29:29.333Z,10.30
2019-04-11T23:33:34.399Z,10.20
2019-04-11T23:37:51.042Z,10.30
2019-04-11T23:41:56.747Z,10.30
2019-04-11T23:46:01.560Z,10.30
2019-04-11T23:50:06.663Z,10.40
2019-04-11T23:54:22.557Z,10.40
2019-04-11T23:58:17.966Z,10.30
